Time;durP1;ratioP1;P1;durP2;ratioP2;P2;SDS_P1;SDS_P2;PMS_P1;PMS_P2;Temp;Humidity;BMP_temperature;BMP_pressure;BME280_temperature;BME280_humidity;BME280_pressure;Samples;Min_cycle;Max_cycle;Signal;HPM_P1;HPM_P2
2024/03/17 00:01:03;;;;;;;8.17;3.40;;;;;;;;;;5061662;28;20219;-72
2024/03/17 00:03:30;;;;;;;14.00;3.47;;;;;;;;;;5070085;28;20259;-72
2024/03/17 00:06:00;;;;;;;9.97;3.30;;;;;;;;;;5069285;28;20185;-72
2024/03/17 00:08:26;;;;;;;9.27;3.60;;;;;;;;;;5064519;28;20200;-72
2024/03/17 00:10:55;;;;;;;12.77;4.73;;;;;;;;;;5069730;28;20271;-71
2024/03/17 00:13:24;;;;;;;11.27;3.50;;;;;;;;;;5068517;28;20204;-72
2024/03/17 00:15:50;;;;;;;9.63;3.30;;;;;;;;;;5066750;28;20633;-72
2024/03/17 00:18:16;;;;;;;9.93;3.70;;;;;;;;;;5069239;28;20196;-72
2024/03/17 00:20:42;;;;;;;12.03;3.33;;;;;;;;;;5069690;28;20645;-72
2024/03/17 00:23:09;;;;;;;8.43;3.57;;;;;;;;;;5068927;28;20185;-72
2024/03/17 00:25:35;;;;;;;8.03;3.60;;;;;;;;;;5065367;28;20192;-72
2024/03/17 00:28:01;;;;;;;8.13;3.23;;;;;;;;;;5053176;28;20186;-72
2024/03/17 00:30:27;;;;;;;8.57;3.43;;;;;;;;;;5069276;28;20648;-72
2024/03/17 00:32:53;;;;;;;10.73;3.80;;;;;;;;;;5065645;28;20216;-72
2024/03/17 00:35:21;;;;;;;9.70;3.23;;;;;;;;;;5052155;28;20233;-72
2024/03/17 00:37:47;;;;;;;10.53;4.10;;;;;;;;;;5058823;28;20225;-72
2024/03/17 00:40:14;;;;;;;5.57;3.27;;;;;;;;;;5065997;28;20235;-72
2024/03/17 00:42:39;;;;;;;10.37;4.17;;;;;;;;;;5066298;28;20267;-72
2024/03/17 00:45:06;;;;;;;9.80;3.87;;;;;;;;;;5072020;28;20271;-72
2024/03/17 00:47:32;;;;;;;9.53;4.50;;;;;;;;;;5066833;28;20196;-72
2024/03/17 00:49:58;;;;;;;10.50;3.93;;;;;;;;;;5065907;28;20660;-72
2024/03/17 00:52:23;;;;;;;9.10;4.17;;;;;;;;;;5059538;28;20248;-72
2024/03/17 00:54:48;;;;;;;12.53;4.60;;;;;;;;;;5063809;28;20559;-72
2024/03/17 00:57:18;;;;;;;11.70;4.70;;;;;;;;;;5065969;28;20184;-72
2024/03/17 00:59:44;;;;;;;14.57;5.50;;;;;;;;;;5063044;28;20204;-72
2024/03/17 01:02:12;;;;;;;12.00;4.80;;;;;;;;;;5064799;28;20189;-72
2024/03/17 01:04:39;;;;;;;10.47;4.87;;;;;;;;;;5062793;28;20230;-72
2024/03/17 01:07:04;;;;;;;10.37;5.20;;;;;;;;;;5069213;28;20216;-72
2024/03/17 01:09:30;;;;;;;17.43;6.77;;;;;;;;;;5056713;28;20216;-71
2024/03/17 01:11:55;;;;;;;15.87;5.07;;;;;;;;;;5061796;28;20661;-71
2024/03/17 01:14:21;;;;;;;17.60;5.77;;;;;;;;;;5057294;28;20189;-71
2024/03/17 01:16:46;;;;;;;12.93;5.80;;;;;;;;;;5070590;28;20189;-72
2024/03/17 01:19:11;;;;;;;16.77;5.50;;;;;;;;;;5069284;28;20291;-72
2024/03/17 01:21:37;;;;;;;12.37;4.70;;;;;;;;;;5063550;28;20185;-72
2024/03/17 01:24:02;;;;;;;17.47;5.50;;;;;;;;;;5053015;28;20230;-72
2024/03/17 01:26:28;;;;;;;9.90;4.53;;;;;;;;;;5061840;28;20197;-72
2024/03/17 01:28:53;;;;;;;10.87;4.73;;;;;;;;;;5062492;28;20265;-72
2024/03/17 01:31:19;;;;;;;9.13;4.83;;;;;;;;;;5068715;28;20238;-72
2024/03/17 01:33:46;;;;;;;9.70;4.27;;;;;;;;;;5061801;28;20555;-72
2024/03/17 01:36:12;;;;;;;9.67;4.93;;;;;;;;;;5063562;28;20308;-72
2024/03/17 01:38:37;;;;;;;11.23;4.83;;;;;;;;;;5067162;28;20236;-72
2024/03/17 01:41:04;;;;;;;13.17;5.03;;;;;;;;;;5068694;28;20548;-72
2024/03/17 01:43:30;;;;;;;10.07;4.47;;;;;;;;;;5068908;28;20248;-71
2024/03/17 01:45:58;;;;;;;10.13;5.40;;;;;;;;;;5067401;28;20222;-71
2024/03/17 01:48:24;;;;;;;13.30;5.47;;;;;;;;;;5064082;28;20192;-71
2024/03/17 01:50:53;;;;;;;13.37;5.40;;;;;;;;;;5066196;28;20185;-71
2024/03/17 01:53:19;;;;;;;11.57;5.53;;;;;;;;;;5066559;28;20258;-72
2024/03/17 01:55:46;;;;;;;15.10;6.60;;;;;;;;;;5063348;28;20217;-71
2024/03/17 01:58:12;;;;;;;12.37;6.07;;;;;;;;;;5065139;28;20189;-71
2024/03/17 02:00:39;;;;;;;12.60;5.70;;;;;;;;;;5069684;28;20195;-72
2024/03/17 02:03:06;;;;;;;11.47;6.27;;;;;;;;;;5070743;28;20272;-72
2024/03/17 02:05:33;;;;;;;10.37;5.60;;;;;;;;;;5068116;28;20192;-71
2024/03/17 02:07:59;;;;;;;9.53;5.83;;;;;;;;;;5056499;28;20189;-71
2024/03/17 02:10:25;;;;;;;13.03;6.00;;;;;;;;;;5064616;28;20259;-72
2024/03/17 02:12:51;;;;;;;12.50;6.17;;;;;;;;;;5069113;28;20290;-72
2024/03/17 02:15:16;;;;;;;13.83;6.10;;;;;;;;;;5065884;28;20195;-72
2024/03/17 02:17:42;;;;;;;13.70;6.70;;;;;;;;;;5068966;28;20200;-72
2024/03/17 02:20:07;;;;;;;13.97;6.53;;;;;;;;;;5067847;28;20550;-72
2024/03/17 02:22:35;;;;;;;13.70;6.97;;;;;;;;;;5055509;28;20265;-71
2024/03/17 02:25:02;;;;;;;9.93;6.13;;;;;;;;;;5060740;28;20185;-71
2024/03/17 02:27:27;;;;;;;13.30;6.60;;;;;;;;;;5051441;28;20192;-72
2024/03/17 02:29:52;;;;;;;15.63;7.67;;;;;;;;;;5068447;28;20184;-72
2024/03/17 02:32:21;;;;;;;17.40;7.37;;;;;;;;;;5060955;28;20204;-72
2024/03/17 02:34:46;;;;;;;12.37;6.70;;;;;;;;;;5055827;28;20195;-72
2024/03/17 02:37:12;;;;;;;10.60;6.73;;;;;;;;;;5067631;28;20232;-72
2024/03/17 02:39:38;;;;;;;11.83;6.97;;;;;;;;;;5058199;28;20641;-72
2024/03/17 02:42:05;;;;;;;12.50;6.87;;;;;;;;;;5069586;28;20181;-72
2024/03/17 02:44:31;;;;;;;13.77;6.93;;;;;;;;;;5061719;28;20196;-72
2024/03/17 02:46:58;;;;;;;12.07;6.90;;;;;;;;;;5069273;28;20208;-71
2024/03/17 02:49:28;;;;;;;17.20;8.00;;;;;;;;;;5054364;28;20714;-71
2024/03/17 02:51:56;;;;;;;13.03;6.93;;;;;;;;;;5062749;28;20230;-71
2024/03/17 02:54:22;;;;;;;11.03;6.77;;;;;;;;;;5051475;28;20187;-71
2024/03/17 02:56:51;;;;;;;17.53;6.47;;;;;;;;;;5059665;28;20191;-72
2024/03/17 02:59:16;;;;;;;11.20;6.87;;;;;;;;;;5067636;28;20191;-72
2024/03/17 03:01:42;;;;;;;10.30;6.33;;;;;;;;;;5062975;28;20525;-72
2024/03/17 03:04:08;;;;;;;14.37;6.87;;;;;;;;;;5054277;28;20185;-72
2024/03/17 03:06:34;;;;;;;11.97;6.47;;;;;;;;;;5070797;28;20621;-72
2024/03/17 03:08:59;;;;;;;15.20;6.90;;;;;;;;;;5068619;28;20216;-72
2024/03/17 03:11:25;;;;;;;13.27;6.53;;;;;;;;;;5067263;28;20276;-72
2024/03/17 03:13:50;;;;;;;15.63;7.33;;;;;;;;;;5075924;28;20211;-72
2024/03/17 03:16:15;;;;;;;12.03;6.60;;;;;;;;;;5068999;28;20602;-72
2024/03/17 03:18:44;;;;;;;10.43;7.07;;;;;;;;;;5068142;28;20279;-72
2024/03/17 03:21:10;;;;;;;13.07;7.00;;;;;;;;;;5068459;28;20335;-72
2024/03/17 03:23:36;;;;;;;18.87;7.17;;;;;;;;;;5071106;28;20192;-72
2024/03/17 03:26:03;;;;;;;9.73;6.30;;;;;;;;;;5058814;28;20556;-72
2024/03/17 03:28:31;;;;;;;14.60;7.37;;;;;;;;;;5057414;28;20192;-72
2024/03/17 03:30:56;;;;;;;11.40;6.60;;;;;;;;;;5050857;28;20201;-72
2024/03/17 03:33:22;;;;;;;13.73;7.43;;;;;;;;;;5070159;28;20232;-72
2024/03/17 03:35:48;;;;;;;8.83;6.47;;;;;;;;;;5063855;28;20322;-72
2024/03/17 03:38:14;;;;;;;12.50;6.97;;;;;;;;;;5063972;28;20242;-72
2024/03/17 03:40:41;;;;;;;16.37;7.00;;;;;;;;;;5068559;28;20189;-72
2024/03/17 03:43:07;;;;;;;16.40;8.53;;;;;;;;;;5067709;28;20588;-72
2024/03/17 03:45:34;;;;;;;12.73;7.50;;;;;;;;;;5073951;28;20196;-73
2024/03/17 03:47:59;;;;;;;13.87;7.33;;;;;;;;;;5059751;28;20186;-73
2024/03/17 03:50:25;;;;;;;15.17;6.83;;;;;;;;;;5067612;28;20196;-73
2024/03/17 03:52:50;;;;;;;10.20;6.90;;;;;;;;;;5064639;28;20684;-73
2024/03/17 03:55:17;;;;;;;11.27;6.77;;;;;;;;;;5058460;28;20212;-72
2024/03/17 03:57:45;;;;;;;11.83;6.40;;;;;;;;;;5068276;28;20282;-72
2024/03/17 04:00:15;;;;;;;17.43;6.63;;;;;;;;;;5064127;28;20192;-72
2024/03/17 04:02:43;;;;;;;10.97;6.40;;;;;;;;;;5067055;28;20195;-73
2024/03/17 04:05:09;;;;;;;12.97;7.30;;;;;;;;;;5074972;28;20503;-73
2024/03/17 04:07:35;;;;;;;15.77;6.77;;;;;;;;;;5067231;28;20192;-73
2024/03/17 04:10:02;;;;;;;12.13;6.63;;;;;;;;;;5067923;28;20215;-73
2024/03/17 04:12:27;;;;;;;15.07;6.73;;;;;;;;;;5057273;28;20577;-72
2024/03/17 04:14:55;;;;;;;12.43;6.33;;;;;;;;;;5075899;28;20224;-72
2024/03/17 04:17:23;;;;;;;14.33;6.57;;;;;;;;;;5082986;28;20200;-71
2024/03/17 04:19:50;;;;;;;13.37;6.40;;;;;;;;;;5048510;28;20658;-72
2024/03/17 04:22:16;;;;;;;14.47;6.80;;;;;;;;;;5062016;28;20242;-72
2024/03/17 04:24:46;;;;;;;11.83;6.03;;;;;;;;;;5058571;28;20262;-72
2024/03/17 04:27:13;;;;;;;12.10;6.67;;;;;;;;;;5052106;28;20197;-72
2024/03/17 04:29:39;;;;;;;9.77;6.17;;;;;;;;;;5073519;28;20261;-72
2024/03/17 04:32:05;;;;;;;11.77;6.17;;;;;;;;;;5067087;28;20270;-72
2024/03/17 04:34:31;;;;;;;12.13;6.60;;;;;;;;;;5063572;28;20640;-72
2024/03/17 04:36:57;;;;;;;15.83;6.97;;;;;;;;;;5058452;28;20275;-72
2024/03/17 04:39:23;;;;;;;18.10;6.27;;;;;;;;;;5063779;28;20200;-72
2024/03/17 04:41:49;;;;;;;11.23;6.07;;;;;;;;;;5066040;28;20205;-71
2024/03/17 04:44:15;;;;;;;13.23;5.97;;;;;;;;;;5054265;28;20197;-71
2024/03/17 04:46:41;;;;;;;11.03;6.07;;;;;;;;;;5068699;28;20668;-72
2024/03/17 04:49:06;;;;;;;10.83;6.03;;;;;;;;;;5066572;28;20197;-72
2024/03/17 04:51:35;;;;;;;12.43;5.63;;;;;;;;;;5072183;28;20483;-72
2024/03/17 04:54:03;;;;;;;14.37;6.10;;;;;;;;;;5062201;28;20327;-72
2024/03/17 04:56:29;;;;;;;12.80;6.40;;;;;;;;;;5074443;28;20187;-71
2024/03/17 04:58:54;;;;;;;14.80;5.80;;;;;;;;;;5069093;28;20201;-71
2024/03/17 05:01:20;;;;;;;15.27;6.40;;;;;;;;;;5060529;28;20207;-71
2024/03/17 05:03:45;;;;;;;16.13;6.27;;;;;;;;;;5060099;28;20181;-71
2024/03/17 05:06:11;;;;;;;15.80;6.90;;;;;;;;;;5063710;28;20199;-72
2024/03/17 05:08:36;;;;;;;12.20;5.33;;;;;;;;;;5074525;28;20621;-72
2024/03/17 05:11:14;;;;;;;14.83;5.57;;;;;;;;;;5065960;28;20193;-72
2024/03/17 05:13:39;;;;;;;10.27;5.33;;;;;;;;;;5067378;28;20523;-71
2024/03/17 05:16:05;;;;;;;15.77;5.67;;;;;;;;;;5070239;28;20193;-72
2024/03/17 05:18:34;;;;;;;17.27;5.60;;;;;;;;;;5074628;28;20744;-72
2024/03/17 05:21:01;;;;;;;11.87;5.93;;;;;;;;;;5070701;28;20543;-72
2024/03/17 05:23:28;;;;;;;16.60;5.63;;;;;;;;;;5069205;28;20272;-71
2024/03/17 05:25:55;;;;;;;17.17;5.93;;;;;;;;;;5072758;28;20548;-71
2024/03/17 05:28:20;;;;;;;12.40;5.87;;;;;;;;;;5059102;28;20185;-71
2024/03/17 05:30:48;;;;;;;17.00;5.77;;;;;;;;;;5065874;28;20196;-71
2024/03/17 05:33:13;;;;;;;14.47;6.23;;;;;;;;;;5069127;28;20216;-71
2024/03/17 05:35:38;;;;;;;11.73;5.90;;;;;;;;;;5059517;28;20236;-71
2024/03/17 05:38:04;;;;;;;14.43;6.10;;;;;;;;;;5066990;28;20205;-72
2024/03/17 05:40:30;;;;;;;12.87;5.87;;;;;;;;;;5065302;28;20212;-73
2024/03/17 05:42:56;;;;;;;10.77;5.70;;;;;;;;;;5068190;28;20224;-72
2024/03/17 05:45:22;;;;;;;16.13;5.90;;;;;;;;;;5068990;28;20207;-72
2024/03/17 05:47:49;;;;;;;13.60;6.07;;;;;;;;;;5066462;28;20189;-72
2024/03/17 05:50:15;;;;;;;12.47;5.83;;;;;;;;;;5068242;28;20206;-73
2024/03/17 05:52:41;;;;;;;11.50;5.67;;;;;;;;;;5055073;28;20209;-73
2024/03/17 05:55:07;;;;;;;13.17;6.00;;;;;;;;;;5064169;28;20193;-73
2024/03/17 05:57:32;;;;;;;11.60;5.23;;;;;;;;;;5063165;28;20193;-73
2024/03/17 05:59:57;;;;;;;21.20;6.37;;;;;;;;;;5067990;28;20253;-73
2024/03/17 06:02:23;;;;;;;16.50;6.53;;;;;;;;;;5065847;28;20181;-73
2024/03/17 06:04:48;;;;;;;15.87;5.37;;;;;;;;;;5062059;28;20193;-73
2024/03/17 06:07:14;;;;;;;20.10;6.87;;;;;;;;;;5067908;28;20220;-73
2024/03/17 06:09:39;;;;;;;12.83;6.00;;;;;;;;;;5057182;28;20200;-73
2024/03/17 06:12:05;;;;;;;15.10;6.37;;;;;;;;;;5068345;28;20578;-73
2024/03/17 06:14:31;;;;;;;18.83;6.40;;;;;;;;;;5070834;28;20253;-73
2024/03/17 06:16:57;;;;;;;12.90;6.03;;;;;;;;;;5068751;28;20276;-73
2024/03/17 06:19:22;;;;;;;17.17;6.50;;;;;;;;;;5060591;28;20352;-72
2024/03/17 06:21:48;;;;;;;11.93;6.43;;;;;;;;;;5068259;28;20588;-73
2024/03/17 06:24:13;;;;;;;18.97;6.07;;;;;;;;;;5052948;28;20185;-72
2024/03/17 06:26:39;;;;;;;16.53;6.30;;;;;;;;;;5066364;28;20190;-73
2024/03/17 06:29:04;;;;;;;15.00;5.90;;;;;;;;;;5063319;28;20580;-72
2024/03/17 06:31:31;;;;;;;17.70;6.27;;;;;;;;;;5070723;28;20220;-72
2024/03/17 06:33:56;;;;;;;17.57;6.93;;;;;;;;;;5069217;28;20302;-73
2024/03/17 06:36:21;;;;;;;16.63;6.03;;;;;;;;;;5050900;28;20277;-73
2024/03/17 06:38:47;;;;;;;18.30;6.80;;;;;;;;;;5065183;28;20248;-73
2024/03/17 06:41:14;;;;;;;14.80;6.60;;;;;;;;;;5058771;28;20220;-73
2024/03/17 06:43:41;;;;;;;14.47;6.87;;;;;;;;;;5064341;28;20184;-73
2024/03/17 06:46:07;;;;;;;19.37;7.20;;;;;;;;;;5069648;28;20185;-73
2024/03/17 06:48:33;;;;;;;19.47;6.80;;;;;;;;;;5066266;28;20220;-73
2024/03/17 06:50:59;;;;;;;13.27;6.87;;;;;;;;;;5063402;28;20654;-73
2024/03/17 06:53:26;;;;;;;17.60;7.40;;;;;;;;;;5068188;28;20204;-73
2024/03/17 06:55:59;;;;;;;14.67;7.40;;;;;;;;;;5068514;28;20543;-73
2024/03/17 06:58:27;;;;;;;18.57;7.67;;;;;;;;;;5062911;28;20556;-72
2024/03/17 07:00:54;;;;;;;17.03;7.10;;;;;;;;;;5072287;28;20241;-72
2024/03/17 07:03:20;;;;;;;16.70;7.43;;;;;;;;;;5072476;28;20688;-71
2024/03/17 07:05:56;;;;;;;15.10;7.73;;;;;;;;;;5068034;28;20275;-72
2024/03/17 07:08:22;;;;;;;17.13;8.03;;;;;;;;;;5067930;28;20678;-72
2024/03/17 07:11:05;;;;;;;16.57;8.30;;;;;;;;;;5057488;28;20201;-72
2024/03/17 07:13:33;;;;;;;15.87;8.10;;;;;;;;;;5058131;28;20302;-72
2024/03/17 07:15:59;;;;;;;18.17;8.17;;;;;;;;;;5066841;28;20187;-72
2024/03/17 07:18:26;;;;;;;16.97;8.73;;;;;;;;;;5056755;28;20213;-72
2024/03/17 07:20:52;;;;;;;20.58;8.68;;;;;;;;;;5062663;28;20196;-72
2024/03/17 07:23:17;;;;;;;16.27;9.35;;;;;;;;;;5065443;28;20191;-72
2024/03/17 07:25:55;;;;;;;14.38;9.10;;;;;;;;;;5064115;28;20204;-72
2024/03/17 07:28:21;;;;;;;18.92;9.07;;;;;;;;;;5060442;28;20189;-72
2024/03/17 07:30:48;;;;;;;18.80;9.80;;;;;;;;;;5056727;28;20277;-72
2024/03/17 07:33:14;;;;;;;19.92;9.90;;;;;;;;;;5075351;28;20280;-72
2024/03/17 07:35:53;;;;;;;19.60;9.98;;;;;;;;;;5054446;28;20229;-72
2024/03/17 07:38:19;;;;;;;16.00;8.95;;;;;;;;;;5057760;28;20540;-72
2024/03/17 07:40:45;;;;;;;18.88;10.23;;;;;;;;;;5060621;28;20192;-72
2024/03/17 07:43:12;;;;;;;24.13;11.20;;;;;;;;;;5069276;28;20193;-72
2024/03/17 07:45:37;;;;;;;19.75;10.27;;;;;;;;;;5063533;28;20620;-73
2024/03/17 07:48:03;;;;;;;20.08;9.85;;;;;;;;;;5059089;28;20223;-72
2024/03/17 07:50:28;;;;;;;17.90;10.18;;;;;;;;;;5067034;28;20278;-72
2024/03/17 07:52:54;;;;;;;24.33;10.77;;;;;;;;;;5041983;28;20212;-72
2024/03/17 07:55:19;;;;;;;19.70;11.07;;;;;;;;;;5077946;28;20274;-72
2024/03/17 07:57:45;;;;;;;22.05;10.85;;;;;;;;;;5062941;28;20181;-72
2024/03/17 08:00:15;;;;;;;20.27;10.52;;;;;;;;;;5068017;28;20361;-72
2024/03/17 08:02:47;;;;;;;21.90;10.70;;;;;;;;;;5066836;28;20207;-72
2024/03/17 08:05:13;;;;;;;21.92;10.23;;;;;;;;;;5072176;28;20193;-72
2024/03/17 08:07:39;;;;;;;19.90;10.68;;;;;;;;;;5075980;28;20192;-72
2024/03/17 08:10:05;;;;;;;18.52;10.63;;;;;;;;;;5076406;28;20196;-72
2024/03/17 08:12:31;;;;;;;21.38;10.20;;;;;;;;;;5065135;28;20326;-72
2024/03/17 08:14:56;;;;;;;19.25;10.73;;;;;;;;;;5071044;28;20318;-72
2024/03/17 08:17:22;;;;;;;15.55;10.57;;;;;;;;;;5060303;28;20298;-72
2024/03/17 08:19:47;;;;;;;21.08;10.40;;;;;;;;;;5060420;28;20210;-73
2024/03/17 08:22:14;;;;;;;14.77;10.18;;;;;;;;;;5067873;28;20372;-72
2024/03/17 08:24:40;;;;;;;20.67;10.00;;;;;;;;;;5066507;28;20188;-71
2024/03/17 08:27:06;;;;;;;18.58;10.75;;;;;;;;;;5047950;28;20184;-71
2024/03/17 08:29:31;;;;;;;17.48;10.63;;;;;;;;;;5062647;28;20183;-71
2024/03/17 08:31:57;;;;;;;20.15;10.82;;;;;;;;;;5070433;28;20204;-72
2024/03/17 08:34:22;;;;;;;19.35;10.52;;;;;;;;;;5065099;28;22775;-72
2024/03/17 08:36:48;;;;;;;19.25;10.13;;;;;;;;;;5067437;28;20220;-72
2024/03/17 08:39:13;;;;;;;16.15;10.27;;;;;;;;;;5069999;28;20193;-72
2024/03/17 08:41:39;;;;;;;17.27;10.10;;;;;;;;;;5067453;28;20594;-72
2024/03/17 08:44:06;;;;;;;16.50;10.52;;;;;;;;;;5069180;28;20760;-72
2024/03/17 08:46:32;;;;;;;15.70;9.82;;;;;;;;;;5067790;28;20597;-71
2024/03/17 08:48:57;;;;;;;19.40;9.70;;;;;;;;;;5066573;28;20189;-71
2024/03/17 08:51:23;;;;;;;15.38;9.18;;;;;;;;;;5061605;28;20201;-71
2024/03/17 08:53:49;;;;;;;14.50;10.02;;;;;;;;;;5071260;28;20208;-71
2024/03/17 08:56:14;;;;;;;18.20;8.50;;;;;;;;;;5069170;28;20193;-72
2024/03/17 08:58:40;;;;;;;15.02;8.38;;;;;;;;;;5064865;28;20258;-72
2024/03/17 09:01:07;;;;;;;15.00;7.82;;;;;;;;;;5060413;28;20219;-73
2024/03/17 09:03:34;;;;;;;13.27;8.27;;;;;;;;;;5064270;28;20766;-73
2024/03/17 09:05:59;;;;;;;12.23;7.43;;;;;;;;;;5057908;28;20657;-73
2024/03/17 09:08:26;;;;;;;13.40;7.18;;;;;;;;;;5062872;28;20192;-73
2024/03/17 09:10:52;;;;;;;11.45;7.80;;;;;;;;;;5065120;28;20185;-73
2024/03/17 09:13:27;;;;;;;14.35;7.95;;;;;;;;;;5064107;28;20255;-73
2024/03/17 09:15:59;;;;;;;11.27;7.55;;;;;;;;;;5061585;28;20341;-73
2024/03/17 09:18:28;;;;;;;12.20;7.50;;;;;;;;;;5065797;28;20600;-73
2024/03/17 09:21:02;;;;;;;11.50;7.30;;;;;;;;;;5063557;28;20191;-71
2024/03/17 09:23:29;;;;;;;10.32;7.25;;;;;;;;;;5067599;28;20219;-72
2024/03/17 09:26:05;;;;;;;12.32;7.88;;;;;;;;;;5064407;28;20275;-72
2024/03/17 09:28:32;;;;;;;14.10;7.85;;;;;;;;;;5066149;28;20184;-72
2024/03/17 09:30:58;;;;;;;10.85;7.55;;;;;;;;;;5062544;28;20188;-72
2024/03/17 09:33:25;;;;;;;10.20;7.15;;;;;;;;;;5070113;28;20226;-73
2024/03/17 09:35:55;;;;;;;10.15;7.13;;;;;;;;;;5062988;28;20225;-72
2024/03/17 09:38:21;;;;;;;9.50;7.40;;;;;;;;;;5067238;28;20195;-72
2024/03/17 09:40:52;;;;;;;10.18;7.00;;;;;;;;;;5064595;28;20188;-72
2024/03/17 09:43:21;;;;;;;10.48;6.72;;;;;;;;;;5069824;28;20180;-71
2024/03/17 09:45:47;;;;;;;15.57;7.07;;;;;;;;;;5060267;28;20274;-71
2024/03/17 09:48:17;;;;;;;11.45;6.75;;;;;;;;;;5071899;28;20185;-71
2024/03/17 09:50:52;;;;;;;13.55;7.05;;;;;;;;;;5063513;28;20299;-71
2024/03/17 09:53:25;;;;;;;12.23;6.97;;;;;;;;;;5066688;28;20244;-71
2024/03/17 09:55:53;;;;;;;11.00;5.90;;;;;;;;;;5072464;28;20189;-71
2024/03/17 09:58:19;;;;;;;11.35;6.15;;;;;;;;;;5069404;28;20600;-72
2024/03/17 10:00:45;;;;;;;9.77;6.18;;;;;;;;;;5077485;28;20198;-72
2024/03/17 10:03:10;;;;;;;9.15;5.90;;;;;;;;;;5078920;28;20196;-72
2024/03/17 10:05:36;;;;;;;8.45;5.78;;;;;;;;;;5070261;28;20185;-72
2024/03/17 10:08:02;;;;;;;7.65;5.05;;;;;;;;;;5070398;28;20661;-73
2024/03/17 10:10:27;;;;;;;10.23;6.28;;;;;;;;;;5065148;28;20284;-72
2024/03/17 10:12:53;;;;;;;11.48;6.88;;;;;;;;;;5067195;28;20408;-72
2024/03/17 10:15:20;;;;;;;9.48;5.78;;;;;;;;;;5077196;28;20271;-71
2024/03/17 10:17:45;;;;;;;9.70;5.95;;;;;;;;;;5064197;28;20189;-72
2024/03/17 10:20:20;;;;;;;9.50;6.03;;;;;;;;;;5064973;28;20213;-72
2024/03/17 10:23:05;;;;;;;8.70;5.38;;;;;;;;;;5081312;28;20191;-72
2024/03/17 10:25:32;;;;;;;9.02;6.25;;;;;;;;;;5070265;28;20189;-71
2024/03/17 10:28:00;;;;;;;7.18;5.35;;;;;;;;;;5060652;28;20186;-72
2024/03/17 10:30:28;;;;;;;7.15;5.07;;;;;;;;;;5069695;28;20256;-72
2024/03/17 10:33:01;;;;;;;6.68;5.53;;;;;;;;;;5067412;28;20228;-71
2024/03/17 10:35:32;;;;;;;9.48;5.40;;;;;;;;;;5060730;28;20704;-71
2024/03/17 10:37:59;;;;;;;9.18;5.45;;;;;;;;;;5066544;28;20196;-71
2024/03/17 10:40:27;;;;;;;7.03;4.78;;;;;;;;;;5068541;28;20501;-71
2024/03/17 10:42:53;;;;;;;7.72;5.05;;;;;;;;;;5060459;28;20189;-71
2024/03/17 10:45:18;;;;;;;7.18;4.90;;;;;;;;;;5068408;28;20912;-71
2024/03/17 10:47:48;;;;;;;7.57;4.60;;;;;;;;;;5067305;28;20254;-71
2024/03/17 10:50:22;;;;;;;9.82;4.43;;;;;;;;;;5062008;28;20223;-71
2024/03/17 10:52:49;;;;;;;5.85;4.35;;;;;;;;;;5058619;28;20215;-71
2024/03/17 10:55:20;;;;;;;7.25;4.88;;;;;;;;;;5067070;28;20243;-71
2024/03/17 10:57:49;;;;;;;6.53;4.32;;;;;;;;;;5074998;28;20188;-71
2024/03/17 11:00:21;;;;;;;6.72;4.45;;;;;;;;;;5066366;28;20185;-71
2024/03/17 11:02:50;;;;;;;8.38;4.80;;;;;;;;;;5069586;28;20256;-70
2024/03/17 11:05:29;;;;;;;7.78;4.95;;;;;;;;;;5042870;28;20284;-72
2024/03/17 11:07:57;;;;;;;6.57;3.88;;;;;;;;;;5056944;28;20193;-72
2024/03/17 11:10:28;;;;;;;6.63;4.30;;;;;;;;;;5062903;28;20186;-72
2024/03/17 11:12:58;;;;;;;5.80;4.05;;;;;;;;;;5043128;28;20852;-70
2024/03/17 11:15:26;;;;;;;6.18;3.83;;;;;;;;;;5058469;28;20189;-70
2024/03/17 11:18:35;;;;;;;5.43;3.90;;;;;;;;;;5054147;28;20194;-70
2024/03/17 11:21:20;;;;;;;8.25;4.07;;;;;;;;;;5061312;28;20714;-71
2024/03/17 11:23:59;;;;;;;5.30;4.20;;;;;;;;;;5064839;28;20200;-71
2024/03/17 11:26:33;;;;;;;8.05;4.50;;;;;;;;;;4345152;28;10000685;-71
2024/03/17 11:29:00;;;;;;;6.55;4.10;;;;;;;;;;5064990;28;20192;-72
2024/03/17 11:31:37;;;;;;;6.13;3.70;;;;;;;;;;5060851;28;20271;-72
2024/03/17 11:34:25;;;;;;;4.95;3.60;;;;;;;;;;5064120;28;20205;-73
2024/03/17 11:36:51;;;;;;;7.72;3.70;;;;;;;;;;5057650;28;20221;-73
2024/03/17 11:39:27;;;;;;;5.57;3.92;;;;;;;;;;5057261;28;20271;-72
2024/03/17 11:41:54;;;;;;;6.18;3.50;;;;;;;;;;5060176;28;20193;-73
2024/03/17 11:44:32;;;;;;;6.15;4.40;;;;;;;;;;5060816;28;20276;-73
2024/03/17 11:46:58;;;;;;;4.25;3.63;;;;;;;;;;5062939;28;20582;-73
2024/03/17 11:49:30;;;;;;;5.38;3.72;;;;;;;;;;5048578;28;20310;-73
2024/03/17 11:52:02;;;;;;;6.47;3.63;;;;;;;;;;5060774;28;20293;-73
2024/03/17 11:54:33;;;;;;;4.00;3.40;;;;;;;;;;5058546;28;20802;-73
2024/03/17 11:57:10;;;;;;;6.13;4.10;;;;;;;;;;5060501;28;20181;-72
2024/03/17 11:59:39;;;;;;;5.72;3.83;;;;;;;;;;5072508;28;20188;-73
2024/03/17 12:02:30;;;;;;;7.47;3.78;;;;;;;;;;5067493;28;20996;-72
2024/03/17 12:05:00;;;;;;;5.15;3.33;;;;;;;;;;5071535;28;20263;-72
2024/03/17 12:07:27;;;;;;;5.45;3.22;;;;;;;;;;5074216;28;20551;-72
2024/03/17 12:09:57;;;;;;;5.20;3.35;;;;;;;;;;5070546;28;20184;-72
2024/03/17 12:12:35;;;;;;;4.15;3.10;;;;;;;;;;5067605;28;20230;-73
2024/03/17 12:15:02;;;;;;;5.80;3.50;;;;;;;;;;5075916;28;20184;-73
2024/03/17 12:17:27;;;;;;;5.78;3.47;;;;;;;;;;5072661;28;20192;-71
2024/03/17 12:19:53;;;;;;;3.90;2.97;;;;;;;;;;5072201;28;20548;-73
2024/03/17 12:22:25;;;;;;;5.05;3.53;;;;;;;;;;5081672;28;20195;-73
2024/03/17 12:24:55;;;;;;;4.38;3.10;;;;;;;;;;5072720;28;20208;-72
2024/03/17 12:27:23;;;;;;;3.90;3.10;;;;;;;;;;5073030;28;20196;-72
2024/03/17 12:29:52;;;;;;;5.18;2.90;;;;;;;;;;5074994;28;20191;-72
2024/03/17 12:32:20;;;;;;;5.97;3.10;;;;;;;;;;5071703;28;20199;-72
2024/03/17 12:34:49;;;;;;;4.45;3.05;;;;;;;;;;5072286;28;20197;-72
2024/03/17 12:37:22;;;;;;;4.47;3.00;;;;;;;;;;5074588;28;20241;-72
2024/03/17 12:39:48;;;;;;;5.93;2.65;;;;;;;;;;5072089;28;20185;-73
2024/03/17 12:42:19;;;;;;;5.47;3.42;;;;;;;;;;5074189;28;20180;-73
2024/03/17 12:44:51;;;;;;;5.00;3.30;;;;;;;;;;5071097;28;20204;-73
2024/03/17 12:47:19;;;;;;;4.10;3.70;;;;;;;;;;5074885;28;20212;-73
2024/03/17 12:49:46;;;;;;;4.68;2.80;;;;;;;;;;5071748;28;20730;-72
2024/03/17 12:52:24;;;;;;;5.15;3.33;;;;;;;;;;5065923;28;20201;-72
2024/03/17 13:00:34;;;;;;;5.63;3.47;;;;;;;;;;5067662;28;20303;-72
2024/03/17 13:03:04;;;;;;;5.55;3.60;;;;;;;;;;5059524;28;20636;-71
2024/03/17 13:05:31;;;;;;;5.05;3.65;;;;;;;;;;5066669;28;20264;-71
2024/03/17 13:07:57;;;;;;;7.03;4.00;;;;;;;;;;5065955;28;20573;-72
2024/03/17 13:10:24;;;;;;;9.70;4.15;;;;;;;;;;5064112;28;20242;-72
2024/03/17 13:13:05;;;;;;;4.53;3.90;;;;;;;;;;5077876;28;20684;-73
2024/03/17 13:15:31;;;;;;;6.28;4.10;;;;;;;;;;5068795;28;20545;-73
2024/03/17 13:18:00;;;;;;;6.97;4.18;;;;;;;;;;5068540;28;20193;-72
2024/03/17 13:20:26;;;;;;;5.93;3.95;;;;;;;;;;5053371;28;20300;-72
2024/03/17 13:22:52;;;;;;;6.22;4.53;;;;;;;;;;5068991;28;20271;-72
2024/03/17 13:25:21;;;;;;;5.78;4.20;;;;;;;;;;5054211;28;20189;-71
2024/03/17 13:27:47;;;;;;;7.45;4.05;;;;;;;;;;5061501;28;20178;-72
2024/03/17 13:30:14;;;;;;;5.57;4.70;;;;;;;;;;5062984;28;20242;-72
2024/03/17 13:32:44;;;;;;;5.28;4.40;;;;;;;;;;5065065;28;20523;-71
2024/03/17 13:35:30;;;;;;;6.15;4.55;;;;;;;;;;5066714;28;20189;-72
2024/03/17 13:38:00;;;;;;;6.47;4.43;;;;;;;;;;5067335;28;20459;-72
2024/03/17 13:40:26;;;;;;;7.28;4.65;;;;;;;;;;5055062;28;20190;-72
2024/03/17 13:42:53;;;;;;;7.43;4.90;;;;;;;;;;5081320;28;20173;-72
2024/03/17 13:45:20;;;;;;;6.25;4.88;;;;;;;;;;5064640;28;20595;-72
2024/03/17 13:47:51;;;;;;;8.15;5.03;;;;;;;;;;5058622;28;20197;-72
2024/03/17 13:50:18;;;;;;;8.32;4.93;;;;;;;;;;5065959;28;20612;-72
2024/03/17 13:52:43;;;;;;;6.43;4.80;;;;;;;;;;5059039;28;20304;-72
2024/03/17 13:55:20;;;;;;;8.95;4.97;;;;;;;;;;5052678;28;20275;-72
2024/03/17 13:57:49;;;;;;;9.57;5.22;;;;;;;;;;5072022;28;20696;-72
2024/03/17 14:00:19;;;;;;;7.15;5.22;;;;;;;;;;5068408;28;20185;-73
2024/03/17 14:02:49;;;;;;;8.50;5.25;;;;;;;;;;5061713;28;20264;-72
2024/03/17 14:05:22;;;;;;;11.35;5.70;;;;;;;;;;5060371;28;20190;-73
2024/03/17 14:07:48;;;;;;;7.43;5.18;;;;;;;;;;5059354;28;20626;-73
2024/03/17 14:10:18;;;;;;;9.77;5.85;;;;;;;;;;5065183;28;20180;-73
2024/03/17 14:12:44;;;;;;;7.57;5.20;;;;;;;;;;5068003;28;20216;-73
2024/03/17 14:15:12;;;;;;;7.00;5.20;;;;;;;;;;5068843;28;20594;-72
2024/03/17 14:17:42;;;;;;;10.65;5.70;;;;;;;;;;5067742;28;20189;-72
2024/03/17 14:20:11;;;;;;;8.90;5.60;;;;;;;;;;5067106;28;20740;-73
2024/03/17 14:22:44;;;;;;;12.23;5.97;;;;;;;;;;5062338;28;20189;-72
2024/03/17 14:25:19;;;;;;;10.23;5.70;;;;;;;;;;5067887;28;20193;-73
2024/03/17 14:27:45;;;;;;;9.50;5.63;;;;;;;;;;5066663;28;20379;-73
2024/03/17 14:30:15;;;;;;;9.15;5.85;;;;;;;;;;5068677;28;20281;-72
2024/03/17 14:32:40;;;;;;;7.57;6.25;;;;;;;;;;5068536;28;20209;-72
2024/03/17 14:35:07;;;;;;;9.63;5.90;;;;;;;;;;5060002;28;20203;-73
2024/03/17 14:37:33;;;;;;;9.18;6.32;;;;;;;;;;5065648;28;20284;-73
2024/03/17 14:39:59;;;;;;;9.88;6.13;;;;;;;;;;5063549;28;20401;-73
2024/03/17 14:42:25;;;;;;;9.93;6.35;;;;;;;;;;5064742;28;20263;-73